Terminal Aerodrome Forecast
Issued by NWS Hastings, NE

Current Version | Previous Version | Text Only | Print | Product List | Glossary On
Versions: 1 2 3 4 5 6 7 8 9 10 11 12 13 14 15
000
FTUS43 KGID 230858 AAA
TAFGRI
TAF AMD
KGRI 230858Z 2309/2406 15018G26KT P6SM VCTS BKN100CB WS012/17050KT
     FM231400 18026G33KT P6SM BKN250
     FM232200 18023G30KT P6SM VCTS BKN050CB OVC090
     FM240400 33018G24KT P6SM VCTS BKN070CB OVC100=

USA.gov is the U.S. government's official web portal to all federal, state and local government web resources and services.